sensor_id;sensor_type;location;lat;lon;timestamp;pressure;altitude;pressure_sealevel;temperature;humidity
77366;BME280;66430;50.182;11.704;2023-01-06T00:02:00;95081.91;;;9.69;44.31
77366;BME280;66430;50.182;11.704;2023-01-06T00:04:26;95082.22;;;9.58;44.51
77366;BME280;66430;50.182;11.704;2023-01-06T00:06:51;95079.61;;;9.90;44.44
77366;BME280;66430;50.182;11.704;2023-01-06T00:09:16;95075.54;;;9.85;44.72
77366;BME280;66430;50.182;11.704;2023-01-06T00:11:41;95073.29;;;10.00;44.45
77366;BME280;66430;50.182;11.704;2023-01-06T00:14:07;95072.60;;;9.79;44.35
77366;BME280;66430;50.182;11.704;2023-01-06T00:16:32;95069.60;;;9.78;44.34
77366;BME280;66430;50.182;11.704;2023-01-06T00:18:59;95068.05;;;9.72;44.54
77366;BME280;66430;50.182;11.704;2023-01-06T00:21:24;95065.52;;;9.48;45.30
77366;BME280;66430;50.182;11.704;2023-01-06T00:23:49;95066.90;;;9.83;44.67
77366;BME280;66430;50.182;11.704;2023-01-06T00:26:14;95064.25;;;9.53;44.99
77366;BME280;66430;50.182;11.704;2023-01-06T00:28:40;95069.48;;;9.74;45.12
77366;BME280;66430;50.182;11.704;2023-01-06T00:31:07;95065.85;;;9.84;44.85
77366;BME280;66430;50.182;11.704;2023-01-06T00:33:31;95062.45;;;9.89;44.90
77366;BME280;66430;50.182;11.704;2023-01-06T00:35:58;95063.18;;;9.74;45.18
77366;BME280;66430;50.182;11.704;2023-01-06T00:38:27;95062.20;;;9.58;45.27
77366;BME280;66430;50.182;11.704;2023-01-06T00:40:48;95059.75;;;9.73;44.76
77366;BME280;66430;50.182;11.704;2023-01-06T00:43:13;95059.44;;;9.80;45.10
77366;BME280;66430;50.182;11.704;2023-01-06T00:45:38;95060.70;;;9.58;45.37
77366;BME280;66430;50.182;11.704;2023-01-06T00:48:05;95057.44;;;9.77;44.85
77366;BME280;66430;50.182;11.704;2023-01-06T00:50:30;95060.93;;;9.88;45.11
77366;BME280;66430;50.182;11.704;2023-01-06T00:52:55;95056.69;;;9.71;45.01
77366;BME280;66430;50.182;11.704;2023-01-06T00:55:20;95057.70;;;9.53;45.76
77366;BME280;66430;50.182;11.704;2023-01-06T00:57:46;95060.58;;;9.47;45.78
77366;BME280;66430;50.182;11.704;2023-01-06T01:00:12;95059.96;;;9.81;45.36
77366;BME280;66430;50.182;11.704;2023-01-06T01:02:37;95059.07;;;9.78;45.10
77366;BME280;66430;50.182;11.704;2023-01-06T01:05:03;95060.44;;;9.67;45.19
77366;BME280;66430;50.182;11.704;2023-01-06T01:07:28;95056.63;;;10.07;44.88
77366;BME280;66430;50.182;11.704;2023-01-06T01:09:53;95053.52;;;9.74;44.94
77366;BME280;66430;50.182;11.704;2023-01-06T01:12:19;95056.14;;;9.72;45.04
77366;BME280;66430;50.182;11.704;2023-01-06T01:14:49;95056.47;;;9.83;45.05
77366;BME280;66430;50.182;11.704;2023-01-06T01:17:13;95054.95;;;9.70;45.01
77366;BME280;66430;50.182;11.704;2023-01-06T01:19:36;95054.92;;;10.23;44.82
77366;BME280;66430;50.182;11.704;2023-01-06T01:22:06;95048.47;;;10.02;44.84
77366;BME280;66430;50.182;11.704;2023-01-06T01:24:28;95047.69;;;9.93;45.11
77366;BME280;66430;50.182;11.704;2023-01-06T01:26:52;95046.98;;;9.57;45.79
77366;BME280;66430;50.182;11.704;2023-01-06T01:29:18;95047.47;;;10.00;45.52
77366;BME280;66430;50.182;11.704;2023-01-06T01:31:43;95046.34;;;10.06;45.38
77366;BME280;66430;50.182;11.704;2023-01-06T01:34:10;95048.40;;;9.85;45.51
77366;BME280;66430;50.182;11.704;2023-01-06T01:36:35;95047.60;;;9.73;45.59
77366;BME280;66430;50.182;11.704;2023-01-06T01:38:59;95044.87;;;10.17;45.31
77366;BME280;66430;50.182;11.704;2023-01-06T01:41:26;95042.33;;;10.02;45.09
77366;BME280;66430;50.182;11.704;2023-01-06T01:43:52;95040.65;;;9.77;45.51
77366;BME280;66430;50.182;11.704;2023-01-06T01:46:18;95043.90;;;9.64;45.82
77366;BME280;66430;50.182;11.704;2023-01-06T01:48:42;95041.72;;;9.61;46.14
77366;BME280;66430;50.182;11.704;2023-01-06T01:51:12;95038.82;;;10.00;45.19
77366;BME280;66430;50.182;11.704;2023-01-06T01:53:37;95037.60;;;9.72;45.98
77366;BME280;66430;50.182;11.704;2023-01-06T01:56:02;95033.03;;;10.36;45.45
77366;BME280;66430;50.182;11.704;2023-01-06T01:58:25;95032.13;;;9.90;45.26
77366;BME280;66430;50.182;11.704;2023-01-06T02:00:51;95031.69;;;9.72;45.76
77366;BME280;66430;50.182;11.704;2023-01-06T02:03:14;95026.29;;;10.06;45.59
77366;BME280;66430;50.182;11.704;2023-01-06T02:05:45;95025.47;;;9.86;45.60
77366;BME280;66430;50.182;11.704;2023-01-06T02:08:13;95026.13;;;10.00;45.21
77366;BME280;66430;50.182;11.704;2023-01-06T02:10:31;95022.89;;;9.90;45.42
77366;BME280;66430;50.182;11.704;2023-01-06T02:12:57;95018.55;;;9.89;45.41
77366;BME280;66430;50.182;11.704;2023-01-06T02:15:24;95016.04;;;9.75;45.80
77366;BME280;66430;50.182;11.704;2023-01-06T02:17:58;95013.15;;;10.08;45.66
77366;BME280;66430;50.182;11.704;2023-01-06T02:22:53;95009.71;;;10.01;45.83
77366;BME280;66430;50.182;11.704;2023-01-06T02:25:19;95007.90;;;10.02;45.57
77366;BME280;66430;50.182;11.704;2023-01-06T02:32:32;95002.18;;;9.99;45.77
77366;BME280;66430;50.182;11.704;2023-01-06T02:34:52;94999.82;;;10.13;45.61
77366;BME280;66430;50.182;11.704;2023-01-06T02:37:23;95000.42;;;10.05;45.70
77366;BME280;66430;50.182;11.704;2023-01-06T02:39:44;94999.54;;;10.20;45.48
77366;BME280;66430;50.182;11.704;2023-01-06T02:42:10;94996.41;;;10.15;45.68
77366;BME280;66430;50.182;11.704;2023-01-06T02:44:31;94999.16;;;10.06;46.02
77366;BME280;66430;50.182;11.704;2023-01-06T02:46:59;94999.76;;;10.27;45.86
77366;BME280;66430;50.182;11.704;2023-01-06T02:49:25;94997.09;;;10.01;45.92
77366;BME280;66430;50.182;11.704;2023-01-06T02:51:49;94994.63;;;10.03;45.72
77366;BME280;66430;50.182;11.704;2023-01-06T02:54:17;94989.32;;;10.32;45.46
77366;BME280;66430;50.182;11.704;2023-01-06T02:56:40;94986.43;;;10.35;45.15
77366;BME280;66430;50.182;11.704;2023-01-06T02:59:04;94987.74;;;9.94;46.16
77366;BME280;66430;50.182;11.704;2023-01-06T03:01:29;94984.24;;;10.30;45.55
77366;BME280;66430;50.182;11.704;2023-01-06T03:03:53;94980.19;;;10.39;45.35
77366;BME280;66430;50.182;11.704;2023-01-06T03:06:29;94975.66;;;10.42;45.27
77366;BME280;66430;50.182;11.704;2023-01-06T03:08:44;94974.49;;;10.31;45.45
77366;BME280;66430;50.182;11.704;2023-01-06T03:11:08;94971.15;;;10.20;45.41
77366;BME280;66430;50.182;11.704;2023-01-06T03:13:38;94972.39;;;10.40;45.67
77366;BME280;66430;50.182;11.704;2023-01-06T03:15:59;94974.95;;;9.93;46.04
77366;BME280;66430;50.182;11.704;2023-01-06T03:18:25;94971.97;;;10.12;45.41
77366;BME280;66430;50.182;11.704;2023-01-06T03:20:50;94967.27;;;10.40;45.47
77366;BME280;66430;50.182;11.704;2023-01-06T03:23:15;94963.98;;;10.49;45.27
77366;BME280;66430;50.182;11.704;2023-01-06T03:25:41;94963.54;;;10.58;45.14
77366;BME280;66430;50.182;11.704;2023-01-06T03:28:06;94962.08;;;10.42;45.27
77366;BME280;66430;50.182;11.704;2023-01-06T03:30:39;94958.78;;;10.51;44.98
77366;BME280;66430;50.182;11.704;2023-01-06T03:33:01;94956.26;;;10.41;44.99
77366;BME280;66430;50.182;11.704;2023-01-06T03:35:32;94958.12;;;10.68;45.06
77366;BME280;66430;50.182;11.704;2023-01-06T03:37:52;94954.49;;;10.13;45.78
77366;BME280;66430;50.182;11.704;2023-01-06T03:40:23;94957.38;;;10.07;46.40
77366;BME280;66430;50.182;11.704;2023-01-06T03:42:43;94954.47;;;10.33;45.99
77366;BME280;66430;50.182;11.704;2023-01-06T03:45:16;94956.71;;;10.30;46.31
77366;BME280;66430;50.182;11.704;2023-01-06T03:47:36;94956.51;;;10.50;45.89
77366;BME280;66430;50.182;11.704;2023-01-06T03:50:03;94956.06;;;10.53;45.90
77366;BME280;66430;50.182;11.704;2023-01-06T03:52:25;94954.00;;;10.26;46.33
77366;BME280;66430;50.182;11.704;2023-01-06T03:54:53;94951.41;;;10.45;46.10
77366;BME280;66430;50.182;11.704;2023-01-06T03:57:14;94953.29;;;10.66;45.68
77366;BME280;66430;50.182;11.704;2023-01-06T03:59:40;94948.52;;;10.55;45.97
77366;BME280;66430;50.182;11.704;2023-01-06T04:02:04;94942.71;;;10.71;45.73
77366;BME280;66430;50.182;11.704;2023-01-06T04:04:28;94944.27;;;10.57;45.61
77366;BME280;66430;50.182;11.704;2023-01-06T04:06:54;94943.13;;;10.49;45.72
77366;BME280;66430;50.182;11.704;2023-01-06T04:09:20;94942.78;;;10.82;45.49
77366;BME280;66430;50.182;11.704;2023-01-06T04:11:46;94941.98;;;10.91;45.59
77366;BME280;66430;50.182;11.704;2023-01-06T04:14:11;94941.40;;;10.66;45.64
77366;BME280;66430;50.182;11.704;2023-01-06T04:16:36;94942.79;;;10.79;45.40
77366;BME280;66430;50.182;11.704;2023-01-06T04:19:02;94944.42;;;10.87;45.37
77366;BME280;66430;50.182;11.704;2023-01-06T04:21:28;94939.88;;;10.70;45.70
77366;BME280;66430;50.182;11.704;2023-01-06T04:23:52;94939.47;;;10.73;45.64
77366;BME280;66430;50.182;11.704;2023-01-06T04:26:18;94936.15;;;11.06;45.78
77366;BME280;66430;50.182;11.704;2023-01-06T04:28:43;94937.69;;;10.45;46.14
77366;BME280;66430;50.182;11.704;2023-01-06T04:31:09;94933.01;;;10.61;45.73
77366;BME280;66430;50.182;11.704;2023-01-06T04:33:35;94929.35;;;10.82;45.96
77366;BME280;66430;50.182;11.704;2023-01-06T04:36:00;94927.25;;;10.70;45.80
77366;BME280;66430;50.182;11.704;2023-01-06T04:38:25;94919.60;;;10.89;45.86
77366;BME280;66430;50.182;11.704;2023-01-06T04:40:51;94914.76;;;10.54;46.28
77366;BME280;66430;50.182;11.704;2023-01-06T04:43:17;94910.13;;;10.55;46.74
77366;BME280;66430;50.182;11.704;2023-01-06T04:45:43;94906.85;;;11.04;46.30
77366;BME280;66430;50.182;11.704;2023-01-06T04:48:07;94902.57;;;10.95;46.04
77366;BME280;66430;50.182;11.704;2023-01-06T04:50:33;94904.24;;;10.73;46.03
77366;BME280;66430;50.182;11.704;2023-01-06T04:53:00;94901.86;;;10.56;46.81
77366;BME280;66430;50.182;11.704;2023-01-06T04:55:24;94898.75;;;11.23;46.15
77366;BME280;66430;50.182;11.704;2023-01-06T04:57:49;94900.46;;;10.73;46.26
77366;BME280;66430;50.182;11.704;2023-01-06T05:00:15;94899.77;;;10.80;46.12
77366;BME280;66430;50.182;11.704;2023-01-06T05:02:40;94898.43;;;10.74;46.14
77366;BME280;66430;50.182;11.704;2023-01-06T05:05:06;94895.08;;;10.95;46.81
77366;BME280;66430;50.182;11.704;2023-01-06T05:07:31;94895.58;;;10.21;47.48
77366;BME280;66430;50.182;11.704;2023-01-06T05:09:57;94894.73;;;10.73;46.93
77366;BME280;66430;50.182;11.704;2023-01-06T05:12:22;94891.63;;;11.14;46.55
77366;BME280;66430;50.182;11.704;2023-01-06T05:14:48;94889.05;;;10.72;46.96
77366;BME280;66430;50.182;11.704;2023-01-06T05:17:15;94891.72;;;10.28;47.46
77366;BME280;66430;50.182;11.704;2023-01-06T05:19:38;94891.66;;;10.56;46.86
77366;BME280;66430;50.182;11.704;2023-01-06T05:22:04;94891.81;;;11.25;46.56
77366;BME280;66430;50.182;11.704;2023-01-06T05:24:30;94891.61;;;11.11;46.45
77366;BME280;66430;50.182;11.704;2023-01-06T05:26:56;94892.39;;;11.19;46.33
77366;BME280;66430;50.182;11.704;2023-01-06T05:29:20;94887.79;;;10.91;46.46
77366;BME280;66430;50.182;11.704;2023-01-06T05:31:46;94888.48;;;10.53;47.06
77366;BME280;66430;50.182;11.704;2023-01-06T05:34:11;94886.30;;;10.77;46.75
77366;BME280;66430;50.182;11.704;2023-01-06T05:36:37;94882.65;;;10.95;46.44
77366;BME280;66430;50.182;11.704;2023-01-06T05:39:02;94884.12;;;11.34;46.49
77366;BME280;66430;50.182;11.704;2023-01-06T05:41:28;94882.02;;;10.77;46.67
77366;BME280;66430;50.182;11.704;2023-01-06T05:43:53;94878.44;;;10.73;46.97
77366;BME280;66430;50.182;11.704;2023-01-06T05:46:19;94876.63;;;10.75;46.93
77366;BME280;66430;50.182;11.704;2023-01-06T05:48:44;94877.96;;;10.81;46.80
77366;BME280;66430;50.182;11.704;2023-01-06T05:51:12;94877.19;;;10.85;46.94
77366;BME280;66430;50.182;11.704;2023-01-06T05:53:37;94879.40;;;11.07;46.42
77366;BME280;66430;50.182;11.704;2023-01-06T05:56:01;94882.64;;;11.12;46.40
77366;BME280;66430;50.182;11.704;2023-01-06T05:58:27;94881.77;;;10.85;46.84
77366;BME280;66430;50.182;11.704;2023-01-06T06:03:17;94878.77;;;11.10;46.41
77366;BME280;66430;50.182;11.704;2023-01-06T06:05:43;94871.32;;;11.06;46.36
77366;BME280;66430;50.182;11.704;2023-01-06T06:08:08;94871.09;;;10.94;46.68
77366;BME280;66430;50.182;11.704;2023-01-06T06:10:33;94869.11;;;10.96;46.75
77366;BME280;66430;50.182;11.704;2023-01-06T06:12:59;94871.15;;;11.19;46.39
77366;BME280;66430;50.182;11.704;2023-01-06T06:15:24;94870.11;;;11.17;46.30
77366;BME280;66430;50.182;11.704;2023-01-06T06:17:50;94871.61;;;11.06;46.43
77366;BME280;66430;50.182;11.704;2023-01-06T06:20:16;94872.56;;;11.39;46.53
77366;BME280;66430;50.182;11.704;2023-01-06T06:22:42;94872.32;;;10.96;46.80
77366;BME280;66430;50.182;11.704;2023-01-06T06:25:07;94871.66;;;11.08;46.71
77366;BME280;66430;50.182;11.704;2023-01-06T06:27:32;94874.42;;;11.18;46.20
77366;BME280;66430;50.182;11.704;2023-01-06T06:29:57;94866.91;;;11.30;46.04
77366;BME280;66430;50.182;11.704;2023-01-06T06:32:23;94869.18;;;11.18;46.41
77366;BME280;66430;50.182;11.704;2023-01-06T06:34:48;94870.35;;;11.12;46.47
77366;BME280;66430;50.182;11.704;2023-01-06T06:37:14;94865.57;;;11.35;46.19
77366;BME280;66430;50.182;11.704;2023-01-06T06:39:39;94868.77;;;11.02;46.70
77366;BME280;66430;50.182;11.704;2023-01-06T06:42:05;94872.73;;;11.24;46.29
77366;BME280;66430;50.182;11.704;2023-01-06T06:44:30;94870.32;;;11.08;46.68
77366;BME280;66430;50.182;11.704;2023-01-06T06:46:57;94873.44;;;11.32;46.14
77366;BME280;66430;50.182;11.704;2023-01-06T06:49:21;94864.02;;;11.33;46.17
77366;BME280;66430;50.182;11.704;2023-01-06T06:51:47;94865.84;;;11.02;46.71
77366;BME280;66430;50.182;11.704;2023-01-06T06:54:12;94869.08;;;11.35;46.38
77366;BME280;66430;50.182;11.704;2023-01-06T06:56:38;94870.97;;;11.22;45.75
77366;BME280;66430;50.182;11.704;2023-01-06T06:59:03;94869.66;;;11.66;45.42
77366;BME280;66430;50.182;11.704;2023-01-06T07:01:28;94878.25;;;11.39;46.32
77366;BME280;66430;50.182;11.704;2023-01-06T07:03:54;94874.68;;;11.46;46.10
77366;BME280;66430;50.182;11.704;2023-01-06T07:06:22;94872.15;;;11.49;46.09
77366;BME280;66430;50.182;11.704;2023-01-06T07:08:46;94872.70;;;11.42;46.13
77366;BME280;66430;50.182;11.704;2023-01-06T07:11:11;94869.37;;;10.83;46.77
77366;BME280;66430;50.182;11.704;2023-01-06T07:13:36;94869.68;;;11.17;46.78
77366;BME280;66430;50.182;11.704;2023-01-06T07:16:01;94870.90;;;11.21;46.79
77366;BME280;66430;50.182;11.704;2023-01-06T07:18:27;94875.48;;;11.19;46.80
77366;BME280;66430;50.182;11.704;2023-01-06T07:20:52;94873.10;;;11.41;46.47
77366;BME280;66430;50.182;11.704;2023-01-06T07:23:18;94876.41;;;11.42;46.44
77366;BME280;66430;50.182;11.704;2023-01-06T07:25:43;94874.61;;;11.27;46.54
77366;BME280;66430;50.182;11.704;2023-01-06T07:28:09;94875.44;;;11.71;46.27
77366;BME280;66430;50.182;11.704;2023-01-06T07:30:36;94882.67;;;11.32;46.62
77366;BME280;66430;50.182;11.704;2023-01-06T07:33:01;94891.93;;;11.21;46.67
77366;BME280;66430;50.182;11.704;2023-01-06T07:35:25;94885.85;;;11.06;47.07
77366;BME280;66430;50.182;11.704;2023-01-06T07:37:51;94891.25;;;11.31;46.73
77366;BME280;66430;50.182;11.704;2023-01-06T07:40:16;94887.02;;;11.64;46.36
77366;BME280;66430;50.182;11.704;2023-01-06T07:42:41;94877.49;;;11.38;46.39
77366;BME280;66430;50.182;11.704;2023-01-06T07:45:08;94878.15;;;11.37;46.35
77366;BME280;66430;50.182;11.704;2023-01-06T07:47:32;94883.23;;;10.99;47.09
77366;BME280;66430;50.182;11.704;2023-01-06T07:49:58;94880.73;;;11.05;47.01
77366;BME280;66430;50.182;11.704;2023-01-06T07:52:23;94884.89;;;11.37;46.46
77366;BME280;66430;50.182;11.704;2023-01-06T07:54:49;94887.21;;;11.14;46.81
77366;BME280;66430;50.182;11.704;2023-01-06T07:57:14;94890.42;;;11.01;47.09
77366;BME280;66430;50.182;11.704;2023-01-06T07:59:40;94887.45;;;11.02;47.06
77366;BME280;66430;50.182;11.704;2023-01-06T08:02:05;94886.89;;;10.93;47.22
77366;BME280;66430;50.182;11.704;2023-01-06T08:04:33;94886.01;;;11.38;46.34
77366;BME280;66430;50.182;11.704;2023-01-06T08:06:56;94883.38;;;11.26;46.36
77366;BME280;66430;50.182;11.704;2023-01-06T08:09:22;94884.02;;;11.19;47.05
77366;BME280;66430;50.182;11.704;2023-01-06T08:11:47;94875.21;;;10.87;47.03
77366;BME280;66430;50.182;11.704;2023-01-06T08:14:13;94875.01;;;11.01;46.82
77366;BME280;66430;50.182;11.704;2023-01-06T08:16:38;94876.62;;;10.94;46.63
77366;BME280;66430;50.182;11.704;2023-01-06T08:19:03;94880.03;;;11.01;46.87
77366;BME280;66430;50.182;11.704;2023-01-06T08:21:29;94876.56;;;10.96;46.74
77366;BME280;66430;50.182;11.704;2023-01-06T08:23:55;94875.48;;;10.92;46.36
77366;BME280;66430;50.182;11.704;2023-01-06T08:26:20;94876.41;;;10.82;47.17
77366;BME280;66430;50.182;11.704;2023-01-06T08:28:46;94878.09;;;10.99;46.98
77366;BME280;66430;50.182;11.704;2023-01-06T08:31:13;94881.85;;;11.13;46.73
77366;BME280;66430;50.182;11.704;2023-01-06T08:33:37;94875.77;;;11.40;46.60
77366;BME280;66430;50.182;11.704;2023-01-06T08:36:04;94879.80;;;11.50;46.39
77366;BME280;66430;50.182;11.704;2023-01-06T08:38:29;94876.09;;;11.38;46.83
77366;BME280;66430;50.182;11.704;2023-01-06T08:40:53;94879.21;;;11.40;47.24
77366;BME280;66430;50.182;11.704;2023-01-06T08:43:18;94881.81;;;11.40;46.92
77366;BME280;66430;50.182;11.704;2023-01-06T08:45:44;94886.62;;;11.40;46.94
77366;BME280;66430;50.182;11.704;2023-01-06T08:48:09;94880.96;;;11.28;47.11
77366;BME280;66430;50.182;11.704;2023-01-06T08:50:36;94883.23;;;11.42;46.98
77366;BME280;66430;50.182;11.704;2023-01-06T08:53:00;94879.75;;;11.68;46.49
77366;BME280;66430;50.182;11.704;2023-01-06T08:55:25;94880.35;;;11.37;46.91
77366;BME280;66430;50.182;11.704;2023-01-06T08:57:51;94880.19;;;11.57;46.72
77366;BME280;66430;50.182;11.704;2023-01-06T09:00:17;94893.42;;;11.50;46.63
77366;BME280;66430;50.182;11.704;2023-01-06T09:02:42;94888.26;;;11.46;46.73
77366;BME280;66430;50.182;11.704;2023-01-06T09:05:08;94886.33;;;11.55;46.51
77366;BME280;66430;50.182;11.704;2023-01-06T09:07:34;94889.09;;;11.47;46.30
77366;BME280;66430;50.182;11.704;2023-01-06T09:09:58;94890.26;;;11.55;46.50
77366;BME280;66430;50.182;11.704;2023-01-06T09:12:24;94888.25;;;11.38;46.78
77366;BME280;66430;50.182;11.704;2023-01-06T09:14:49;94885.75;;;11.64;46.40
77366;BME280;66430;50.182;11.704;2023-01-06T09:17:14;94885.07;;;11.51;46.43
77366;BME280;66430;50.182;11.704;2023-01-06T09:19:40;94881.30;;;11.30;46.34
77366;BME280;66430;50.182;11.704;2023-01-06T09:22:05;94877.49;;;11.43;46.59
77366;BME280;66430;50.182;11.704;2023-01-06T09:24:31;94884.47;;;11.35;46.50
77366;BME280;66430;50.182;11.704;2023-01-06T09:26:56;94893.69;;;11.48;47.03
77366;BME280;66430;50.182;11.704;2023-01-06T09:29:22;94890.54;;;11.86;46.44
77366;BME280;66430;50.182;11.704;2023-01-06T09:31:48;94896.90;;;11.77;46.67
77366;BME280;66430;50.182;11.704;2023-01-06T09:34:14;94901.62;;;11.56;46.41
77366;BME280;66430;50.182;11.704;2023-01-06T09:36:39;94896.77;;;11.77;45.87
77366;BME280;66430;50.182;11.704;2023-01-06T09:39:04;94900.82;;;11.85;46.14
77366;BME280;66430;50.182;11.704;2023-01-06T09:41:47;94899.41;;;11.75;46.19
77366;BME280;66430;50.182;11.704;2023-01-06T09:44:02;94903.63;;;11.82;46.12
77366;BME280;66430;50.182;11.704;2023-01-06T09:46:23;94899.16;;;11.53;46.48
77366;BME280;66430;50.182;11.704;2023-01-06T09:48:54;94897.42;;;11.39;46.63
77366;BME280;66430;50.182;11.704;2023-01-06T09:51:17;94896.86;;;11.76;45.97
77366;BME280;66430;50.182;11.704;2023-01-06T09:53:40;94890.31;;;11.67;46.12
77366;BME280;66430;50.182;11.704;2023-01-06T09:56:04;94888.07;;;11.79;46.02
77366;BME280;66430;50.182;11.704;2023-01-06T09:58:31;94885.01;;;11.53;46.35
77366;BME280;66430;50.182;11.704;2023-01-06T10:00:55;94881.54;;;11.93;45.75
77366;BME280;66430;50.182;11.704;2023-01-06T10:03:21;94887.22;;;11.35;46.51
77366;BME280;66430;50.182;11.704;2023-01-06T10:05:53;94883.03;;;11.66;46.25
77366;BME280;66430;50.182;11.704;2023-01-06T10:08:15;94876.72;;;11.81;46.27
77366;BME280;66430;50.182;11.704;2023-01-06T10:10:40;94873.76;;;11.92;45.74
77366;BME280;66430;50.182;11.704;2023-01-06T10:15:33;94870.12;;;11.85;46.22
77366;BME280;66430;50.182;11.704;2023-01-06T10:18:00;94868.75;;;11.82;46.38
77366;BME280;66430;50.182;11.704;2023-01-06T10:20:31;94871.94;;;11.49;46.32
77366;BME280;66430;50.182;11.704;2023-01-06T10:22:48;94864.36;;;11.65;46.15
77366;BME280;66430;50.182;11.704;2023-01-06T10:25:16;94866.06;;;11.71;46.01
77366;BME280;66430;50.182;11.704;2023-01-06T10:27:36;94876.85;;;11.63;46.08
77366;BME280;66430;50.182;11.704;2023-01-06T10:29:59;94876.53;;;11.47;46.51
77366;BME280;66430;50.182;11.704;2023-01-06T10:32:28;94880.01;;;11.33;46.25
77366;BME280;66430;50.182;11.704;2023-01-06T10:34:50;94877.10;;;11.61;46.01
77366;BME280;66430;50.182;11.704;2023-01-06T10:37:20;94873.29;;;11.71;46.38
77366;BME280;66430;50.182;11.704;2023-01-06T10:39:44;94869.48;;;11.66;46.33
77366;BME280;66430;50.182;11.704;2023-01-06T10:42:21;94862.15;;;12.04;45.92
77366;BME280;66430;50.182;11.704;2023-01-06T10:44:31;94855.83;;;11.83;46.50
77366;BME280;66430;50.182;11.704;2023-01-06T10:46:57;94863.77;;;11.62;46.33
77366;BME280;66430;50.182;11.704;2023-01-06T10:49:24;94862.46;;;11.54;46.37
77366;BME280;66430;50.182;11.704;2023-01-06T10:51:50;94868.96;;;11.78;46.13
77366;BME280;66430;50.182;11.704;2023-01-06T10:54:16;94865.50;;;11.85;45.32
77366;BME280;66430;50.182;11.704;2023-01-06T10:56:44;94864.19;;;12.08;45.29
77366;BME280;66430;50.182;11.704;2023-01-06T10:59:07;94868.27;;;11.73;45.51
77366;BME280;66430;50.182;11.704;2023-01-06T11:01:29;94869.14;;;11.83;45.43
77366;BME280;66430;50.182;11.704;2023-01-06T11:04:05;94866.32;;;11.83;45.44
77366;BME280;66430;50.182;11.704;2023-01-06T11:06:26;94876.65;;;11.57;45.31
77366;BME280;66430;50.182;11.704;2023-01-06T11:08:46;94877.79;;;11.36;45.62
77366;BME280;66430;50.182;11.704;2023-01-06T11:11:13;94883.81;;;11.34;45.47
77366;BME280;66430;50.182;11.704;2023-01-06T11:13:37;94885.64;;;11.13;45.78
77366;BME280;66430;50.182;11.704;2023-01-06T11:16:04;94880.45;;;11.15;45.41
77366;BME280;66430;50.182;11.704;2023-01-06T11:18:29;94889.26;;;10.96;45.80
77366;BME280;66430;50.182;11.704;2023-01-06T11:21:04;94896.78;;;10.84;46.19
77366;BME280;66430;50.182;11.704;2023-01-06T11:23:21;94887.73;;;11.05;45.92
77366;BME280;66430;50.182;11.704;2023-01-06T11:28:13;94882.58;;;11.29;45.89
77366;BME280;66430;50.182;11.704;2023-01-06T11:30:39;94881.84;;;11.38;45.83
77366;BME280;66430;50.182;11.704;2023-01-06T11:33:00;94881.28;;;11.12;46.11
77366;BME280;66430;50.182;11.704;2023-01-06T11:35:31;94885.46;;;11.32;45.91
77366;BME280;66430;50.182;11.704;2023-01-06T11:37:56;94883.99;;;11.34;45.70
77366;BME280;66430;50.182;11.704;2023-01-06T11:40:19;94889.28;;;11.45;45.30
77366;BME280;66430;50.182;11.704;2023-01-06T11:42:42;94882.41;;;10.91;45.71
77366;BME280;66430;50.182;11.704;2023-01-06T11:47:33;94885.39;;;10.92;46.34
77366;BME280;66430;50.182;11.704;2023-01-06T11:50:00;94878.47;;;11.23;45.69
77366;BME280;66430;50.182;11.704;2023-01-06T11:52:27;94878.77;;;10.80;46.18
77366;BME280;66430;50.182;11.704;2023-01-06T11:55:00;94889.97;;;11.07;46.24
77366;BME280;66430;50.182;11.704;2023-01-06T11:57:20;94885.15;;;10.81;46.18
77366;BME280;66430;50.182;11.704;2023-01-06T11:59:50;94883.59;;;10.73;46.14
77366;BME280;66430;50.182;11.704;2023-01-06T12:02:13;94882.31;;;10.77;46.15
77366;BME280;66430;50.182;11.704;2023-01-06T12:04:35;94872.42;;;10.88;45.78
77366;BME280;66430;50.182;11.704;2023-01-06T12:07:03;94864.80;;;11.03;45.63
77366;BME280;66430;50.182;11.704;2023-01-06T12:09:26;94862.14;;;10.70;46.09
77366;BME280;66430;50.182;11.704;2023-01-06T12:11:49;94865.20;;;11.01;45.74
77366;BME280;66430;50.182;11.704;2023-01-06T12:14:16;94872.23;;;10.95;45.67
77366;BME280;66430;50.182;11.704;2023-01-06T12:16:43;94864.68;;;11.26;45.29
77366;BME280;66430;50.182;11.704;2023-01-06T12:19:11;94865.68;;;10.58;45.79
77366;BME280;66430;50.182;11.704;2023-01-06T12:21:31;94864.65;;;11.04;45.87
77366;BME280;66430;50.182;11.704;2023-01-06T12:23:58;94864.84;;;10.99;45.41
77366;BME280;66430;50.182;11.704;2023-01-06T12:26:23;94864.84;;;11.20;45.35
77366;BME280;66430;50.182;11.704;2023-01-06T12:28:48;94858.27;;;11.06;45.15
77366;BME280;66430;50.182;11.704;2023-01-06T12:31:15;94856.13;;;10.72;45.92
77366;BME280;66430;50.182;11.704;2023-01-06T12:33:41;94861.52;;;10.67;45.56
77366;BME280;66430;50.182;11.704;2023-01-06T12:36:05;94856.18;;;10.83;44.99
77366;BME280;66430;50.182;11.704;2023-01-06T12:38:38;94851.46;;;10.64;44.68
77366;BME280;66430;50.182;11.704;2023-01-06T12:40:58;94850.06;;;10.82;44.95
77366;BME280;66430;50.182;11.704;2023-01-06T12:43:22;94854.45;;;10.34;45.09
77366;BME280;66430;50.182;11.704;2023-01-06T12:45:53;94855.65;;;10.23;45.04
77366;BME280;66430;50.182;11.704;2023-01-06T12:48:17;94860.01;;;10.78;45.10
77366;BME280;66430;50.182;11.704;2023-01-06T12:50:38;94858.72;;;10.67;45.23
77366;BME280;66430;50.182;11.704;2023-01-06T12:53:05;94862.29;;;10.38;45.92
77366;BME280;66430;50.182;11.704;2023-01-06T12:55:33;94865.74;;;10.68;45.16
77366;BME280;66430;50.182;11.704;2023-01-06T12:57:57;94863.31;;;10.63;45.46
77366;BME280;66430;50.182;11.704;2023-01-06T13:00:29;94866.12;;;10.25;45.26